Latest Weather Observations for Newcastle Nobbys

IDN60901

Issued at 9:31 pm EST Tuesday 21 April 2015 (issued every 10 minutes, with the page automatically refreshed every 10 minutes)

About weather observations | Map of Sydney area stations | Latest observations for Sydney area | Other Formats
Station Details ID: 061055 Name: NEWCASTLE NOBBYS SIGNAL STATION AWS Lat: -32.92 Lon: 151.80 Height: 33.0 m
Data from the previous 72 hours. | See also: Recent months at Newcastle Nobbys
Date/Time
EST
Tmp

°C
App
Tmp
°C
Dew
Point
°C
Rel
Hum
%
Delta-T

°C
Wind Press
QNH
hPa
Press
MSL
hPa
Rain
since
9 am
mm
Dir
 
Spd
km/h
Gust
km/h
Spd
kts
Gust
kts
21/09:30pm 15.2 13.9 13.6 90 0.9 - 13 15 7 8 - - -
21/09:00pm 14.8 - 13.3 91 0.8 - - - - - - - 35.0
21/08:30pm 14.9 - 13.4 91 0.8 - - - - - - - -
21/08:00pm 16.1 - 14.3 89 1.0 - - - - - - - -
21/07:30pm 16.7 - 16.1 96 0.4 - - - - - - - -
21/07:00pm 15.8 - 14.8 94 0.6 - - - - - - - -
21/06:30pm 15.7 - 14.4 92 0.7 - - - - - - - -
21/06:00pm 15.5 8.8 14.5 94 0.6 - 43 56 23 30 - - -
21/05:30pm 13.8 - 13.3 97 0.3 - - - - - - - -
21/05:00pm 14.2 - 13.2 94 0.6 - - - - - - - -
21/04:30pm 14.6 - 13.8 95 0.4 - - - - - - - -
21/04:00pm 14.4 - 13.9 97 0.3 - - - - - - - -
21/03:30pm 14.9 - 14.6 98 0.2 - - - - - - - -
21/03:00pm 15.2 - 14.9 98 0.2 - - - - - - - 21.0
21/02:30pm 15.0 - 14.5 97 0.3 - - - - - - - -
21/02:00pm 16.0 - 15.0 94 0.6 - - - - - - - -
21/01:30pm 15.8 - 15.2 96 0.3 - - - - - - - -
21/01:00pm 16.6 - 16.0 96 0.4 - - - - - - - -
21/12:30pm 16.3 - 16.1 99 0.1 - - - - - - - -
21/12:00pm 16.1 - 15.9 99 0.1 - - - - - - - -
21/11:30am 16.6 - 16.0 96 0.4 - - - - - - - -
21/11:00am 17.5 4.2 16.7 95 0.5 N 82 102 44 55 - - 2.2
21/10:30am 16.9 3.2 16.1 95 0.5 N 83 106 45 57 - - 1.6
21/10:00am 18.2 6.8 17.6 96 0.4 N 74 104 40 56 - - 1.2
21/09:30am 17.7 5.9 17.5 99 0.1 N 76 102 41 55 - - 1.2
21/09:05am 17.8 8.1 17.6 99 0.1 N 65 96 35 52 - - 0.0
21/09:04am 17.9 9.0 17.7 99 0.1 N 61 89 33 48 - - 0.0
21/09:00am 17.9 9.4 17.7 99 0.1 NNE 59 85 32 46 - - 99.2
21/08:57am 16.6 6.0 16.4 99 0.1 NNE 67 96 36 52 - - 99.2
21/08:55am 16.7 5.2 16.5 99 0.1 N 72 96 39 52 - - 99.2
21/08:30am 17.1 4.5 16.6 97 0.3 N 78 96 42 52 - - 95.2
21/08:00am 16.5 2.8 15.7 95 0.5 N 82 102 44 55 - - 94.2
21/07:30am 17.7 3.4 15.7 88 1.2 N 85 111 46 60 - - 94.0
21/07:00am 17.5 2.9 16.9 96 0.4 N 89 113 48 61 - - 94.0
21/06:34am 16.3 2.6 15.7 96 0.4 N 82 106 44 57 - - 92.2
21/06:30am 16.2 2.5 15.6 96 0.4 N 82 100 44 54 - - 92.0
21/06:00am 17.2 3.2 16.4 95 0.5 N 85 113 46 61 - - 91.6
21/05:30am 17.4 2.7 16.6 95 0.5 N 89 119 48 64 - - 91.4
21/05:25am 17.5 2.5 16.7 95 0.5 N 91 119 49 64 - - 91.4
21/05:16am 17.6 2.2 16.8 95 0.5 N 93 117 50 63 - - 91.4
21/05:00am 17.3 4.0 17.1 99 0.1 N 83 135 45 73 - - 91.4
21/04:58am 17.0 4.9 16.8 99 0.1 N 76 126 41 68 - - 91.4
21/04:57am 17.0 5.6 16.8 99 0.1 N 72 109 39 59 - - 91.4
21/04:56am 16.8 5.7 16.6 99 0.1 N 70 89 38 48 - - 91.2
21/04:53am 16.6 5.1 16.4 99 0.1 N 72 89 39 48 - - 91.2
21/04:30am 16.4 2.0 15.4 94 0.6 N 85 109 46 59 - - 85.2
21/04:00am 16.4 2.0 15.3 93 0.6 N 85 111 46 60 - - 84.8
21/03:30am 17.6 2.6 15.8 89 1.1 N 89 115 48 62 - - 84.6
21/03:00am 17.6 2.0 15.2 86 1.4 N 91 115 49 62 - - 84.6
21/02:32am 17.3 2.8 16.2 93 0.7 N 87 109 47 59 - - 84.4
21/02:30am 17.5 3.6 16.7 95 0.5 N 85 102 46 55 - - 84.4
21/02:00am 16.7 3.2 16.1 96 0.4 N 82 111 44 60 - - 84.0
21/01:30am 17.0 3.5 16.8 99 0.1 N 83 109 45 59 - - 83.2
21/01:00am 16.5 4.6 16.3 99 0.1 NNE 74 95 40 51 - - 78.4
21/12:30am 16.1 3.9 15.6 97 0.3 NNE 74 95 40 51 - - 74.8
21/12:01am 16.6 3.5 16.3 98 0.2 NNE 80 98 43 53 - - 71.4
21/12:00am 16.6 3.1 16.3 98 0.2 NNE 82 98 44 53 - - 71.4
 
Date/Time
EST
Tmp

°C
App
Tmp
°C
Dew
Point
°C
Rel
Hum
%
Delta-T

°C
Wind Press
QNH
hPa
Press
MSL
hPa
Rain
since
9 am
mm
Dir
 
Spd
km/h
Gust
km/h
Spd
kts
Gust
kts
20/11:52pm 16.9 4.7 16.7 99 0.1 S 76 98 41 53 - - 70.6
20/11:30pm 17.1 6.3 16.8 98 0.2 S 69 87 37 47 - - 66.0
20/11:02pm 17.1 7.2 16.3 95 0.5 S 63 82 34 44 - - 62.4
20/11:00pm 17.1 6.9 16.5 96 0.4 S 65 83 35 45 - - 62.2
20/10:30pm 18.3 5.9 17.1 93 0.7 SSE 78 102 42 55 - - 60.0
20/10:00pm 18.1 7.9 17.3 95 0.5 SSE 67 95 36 51 - - 59.2
20/09:37pm 18.9 8.8 18.4 97 0.3 SSE 69 89 37 48 - - 58.8
20/09:30pm 19.0 8.6 18.2 95 0.5 SSE 70 91 38 49 - - 58.8
20/09:29pm 19.1 8.7 17.8 92 0.8 SSE 69 91 37 49 - - 58.8
20/09:00pm 17.6 9.0 17.6 100 0.0 S 59 78 32 42 - - 58.8
20/08:55pm 17.6 9.6 17.6 100 0.0 S 56 76 30 41 - - 58.6
20/08:30pm 17.3 9.2 17.3 100 0.0 S 56 69 30 37 - - 43.8
20/08:14pm 17.5 8.4 17.3 99 0.1 S 61 80 33 43 - - 37.6
20/08:00pm 17.5 10.5 17.3 99 0.1 S 50 63 27 34 - - 32.2
20/07:30pm 17.8 11.5 17.2 96 0.4 SSE 46 59 25 32 - - 26.8
20/07:00pm 18.4 12.5 15.8 85 1.5 S 41 50 22 27 - - 24.4
20/06:30pm 18.1 12.4 17.3 95 0.5 S 43 50 23 27 - - 24.0
20/06:00pm 17.7 13.8 16.4 92 0.8 SSW 32 46 17 25 - - 22.8
20/05:30pm 18.1 15.4 16.6 91 0.9 SSW 26 43 14 23 - - 20.4
20/05:00pm 18.4 12.0 15.3 82 1.8 S 43 50 23 27 - - 20.0
20/04:30pm 17.7 12.8 15.3 86 1.4 S 35 43 19 23 - - 20.0
20/04:19pm 17.3 14.0 16.0 92 0.8 SSW 28 46 15 25 - - 20.0
20/04:13pm 16.9 13.7 16.3 96 0.4 SSW 28 46 15 25 - - 19.4
20/04:00pm 16.9 14.8 16.3 96 0.4 SSW 22 32 12 17 - - 16.4
20/03:30pm 16.9 12.7 15.8 93 0.6 S 32 39 17 21 - - 11.2
20/03:00pm 18.6 15.5 15.7 83 1.7 S 26 33 14 18 - - 7.0
20/02:30pm 18.6 13.8 15.7 83 1.7 SSE 35 43 19 23 - - 6.8
20/02:00pm 17.4 12.0 15.0 86 1.4 S 37 46 20 25 - - 6.6
20/01:30pm 17.9 11.4 15.5 86 1.4 SSE 44 52 24 28 - - 6.6
20/01:00pm 17.9 11.6 15.7 87 1.3 SSE 43 59 23 32 - - 6.6
20/12:30pm 17.9 12.1 15.9 88 1.2 SSE 41 46 22 25 - - 6.2
20/12:00pm 17.5 11.5 16.5 94 0.6 S 43 50 23 27 - - 6.0
20/11:30am 17.7 12.4 16.4 92 0.8 S 39 46 21 25 - - 5.6
20/11:00am 17.6 11.4 16.5 93 0.7 SSE 44 52 24 28 - - 4.8
20/10:30am 17.3 10.6 16.2 93 0.7 S 46 56 25 30 - - 4.0
20/10:00am 17.0 9.9 16.0 94 0.6 SSE 48 57 26 31 - - 3.8
20/09:35am 16.7 15.1 16.4 98 0.2 SSW 20 50 11 27 - - 3.0
20/09:30am 15.5 13.9 15.0 97 0.3 SW 17 28 9 15 - - 2.8
20/09:00am 14.9 12.3 13.9 94 0.6 SW 20 30 11 16 - - 8.2
20/08:30am 14.4 11.7 13.4 94 0.6 SW 20 32 11 17 - - 8.2
20/08:00am 14.4 11.0 13.8 96 0.3 SW 24 35 13 19 - - 8.2
20/07:30am 14.0 11.2 13.1 94 0.5 SW 20 35 11 19 - - 6.8
20/07:00am 14.0 10.4 12.9 93 0.6 SW 24 37 13 20 - - 6.8
20/06:30am 13.8 10.1 12.7 93 0.6 SW 24 43 13 23 - - 6.8
20/06:00am 14.2 11.0 13.1 93 0.6 SW 22 37 12 20 - - 6.8
20/05:30am 14.1 11.2 13.0 93 0.6 SW 20 33 11 18 - - 6.8
20/05:00am 14.0 10.7 12.9 93 0.6 SW 22 33 12 18 - - 6.8
20/04:30am 14.4 11.7 13.4 94 0.6 SW 20 32 11 17 - - 6.6
20/04:00am 14.3 11.1 13.2 93 0.6 SW 22 35 12 19 - - 6.2
20/03:30am 14.2 11.0 13.2 94 0.6 SW 22 35 12 19 - - 6.2
20/03:00am 14.5 11.1 13.7 95 0.4 SW 24 37 13 20 - - 6.2
20/02:30am 14.3 10.4 13.3 94 0.6 SW 26 37 14 20 - - 5.6
20/02:00am 14.1 11.2 12.8 92 0.7 SW 20 35 11 19 - - 3.8
20/01:30am 14.9 10.0 13.6 92 0.7 SW 32 46 17 25 - - 3.2
20/01:00am 15.1 10.2 13.8 92 0.7 SSW 32 44 17 24 - - 3.2
20/12:30am 15.9 10.4 14.6 92 0.7 SSW 37 50 20 27 - - 2.4
20/12:14am 17.0 9.3 14.3 84 1.5 S 48 65 26 35 - - 2.4
20/12:00am 16.9 8.7 14.0 83 1.7 S 50 63 27 34 - - 2.4
 
Date/Time
EST
Tmp

°C
App
Tmp
°C
Dew
Point
°C
Rel
Hum
%
Delta-T

°C
Wind Press
QNH
hPa
Press
MSL
hPa
Rain
since
9 am
mm
Dir
 
Spd
km/h
Gust
km/h
Spd
kts
Gust
kts
19/11:30pm 17.0 9.6 15.3 90 1.0 S 48 59 26 32 - - 2.2
19/11:00pm 16.7 9.9 14.9 89 1.0 SSW 44 56 24 30 - - 2.2
19/10:30pm 16.6 9.9 15.1 91 0.9 SSW 44 56 24 30 - - 2.0
19/10:00pm 16.4 9.7 14.6 89 1.0 SSW 43 57 23 31 - - 0.8
19/09:43pm 18.1 11.2 15.5 85 1.5 S 46 56 25 30 - - 0.2
19/09:30pm 17.9 10.2 14.4 80 2.0 S 48 56 26 30 - - 0.2
19/09:00pm 18.1 10.7 14.2 78 2.2 S 46 57 25 31 - - 0.2
19/08:30pm 18.1 10.3 14.2 78 2.2 S 48 57 26 31 - - 0.2
19/08:00pm 18.2 11.1 14.1 77 2.4 S 44 54 24 29 - - 0.2
19/07:30pm 18.1 11.4 15.2 83 1.7 S 44 54 24 29 - - 0.2
19/07:00pm 18.4 11.6 15.8 85 1.5 S 46 54 25 29 - - 0.2
19/06:30pm 18.5 12.0 15.2 81 1.9 S 43 52 23 28 - - 0.0
19/06:00pm 18.2 11.4 14.7 80 2.0 S 44 54 24 29 - - 0.0
19/05:30pm 18.5 12.1 15.9 85 1.5 S 44 50 24 27 - - 0.0
19/05:00pm 18.6 12.4 16.0 85 1.5 S 43 52 23 28 - - 0.0
19/04:30pm 18.6 12.2 15.8 84 1.7 S 44 52 24 28 - - 0.0
19/04:00pm 19.0 12.8 16.0 83 1.8 S 43 52 23 28 - - 0.0
19/03:30pm 19.6 13.7 16.8 84 1.7 S 43 50 23 27 - - 0.0
19/03:00pm 19.7 14.0 16.3 81 2.0 S 41 48 22 26 - - 0.0
19/02:30pm 20.2 16.1 16.4 79 2.3 S 33 43 18 23 - - 0.0
19/02:00pm 20.6 17.5 14.5 68 3.6 SSW 24 32 13 17 - - 0.0
19/01:30pm 20.9 17.8 13.4 62 4.3 SSW 22 33 12 18 - - 0.0
19/01:00pm 21.0 19.0 11.6 55 5.2 SW 13 19 7 10 - - 0.0
19/12:30pm 22.0 19.4 10.8 49 6.2 SW 15 26 8 14 - - 0.0
19/12:00pm 22.0 19.8 12.0 53 5.6 SW 15 22 8 12 - - 0.0
19/11:30am 21.0 18.8 13.2 61 4.5 SW 17 32 9 17 - - 0.0
19/11:00am 22.1 21.1 15.5 66 3.9 SSW 15 32 8 17 - - 0.0
19/10:30am 23.0 22.6 17.2 70 3.6 WNW 15 19 8 10 - - 0.0
19/10:00am 21.4 20.3 17.4 78 2.5 WNW 19 26 10 14 - - 0.0
19/09:30am 20.5 18.8 17.1 81 2.1 NW 22 28 12 15 - - 0.0
19/09:00am 19.6 18.2 17.0 85 1.6 WNW 20 26 11 14 - - 3.8
19/08:30am 18.7 16.8 16.7 88 1.2 WNW 22 28 12 15 - - 3.8
19/08:00am 18.4 17.1 16.7 90 1.0 WNW 19 24 10 13 - - 3.8
19/07:30am 18.1 17.0 16.4 90 1.0 NW 17 20 9 11 - - 3.8
19/07:00am 18.0 17.7 16.5 91 0.9 NW 13 19 7 10 - - 3.8
19/06:30am 17.9 18.0 16.6 92 0.8 NW 11 17 6 9 - - 3.8
19/06:00am 17.9 17.8 16.9 94 0.6 NW 13 17 7 9 - - 3.8
19/05:30am 18.1 17.3 17.1 94 0.6 NW 17 20 9 11 - - 3.8
19/05:00am 18.1 16.9 17.0 93 0.7 NNW 19 22 10 12 - - 3.8
19/04:30am 18.0 18.7 17.0 94 0.6 NW 9 13 5 7 - - 3.8
19/04:00am 18.0 16.8 17.0 94 0.6 NNW 19 24 10 13 - - 3.2
19/03:30am 18.2 17.4 17.0 93 0.7 NNW 17 20 9 11 - - 3.0
19/03:00am 18.4 17.6 17.2 93 0.7 NNW 17 20 9 11 - - 2.8
19/02:30am 18.8 17.5 17.3 91 0.9 NNW 20 32 11 17 - - 1.8
19/02:00am 20.0 18.5 16.8 82 1.9 NW 20 28 11 15 - - 0.2
19/01:30am 21.8 20.4 15.6 68 3.7 NW 17 22 9 12 - - 0.0
19/01:00am 22.0 20.8 15.1 65 4.1 WNW 15 20 8 11 - - 0.0
19/12:30am 22.2 19.9 15.8 67 3.8 W 22 28 12 15 - - 0.0
19/12:00am 22.0 21.4 16.7 72 3.2 WNW 15 20 8 11 - - 0.0
 
Date/Time
EST
Tmp

°C
App
Tmp
°C
Dew
Point
°C
Rel
Hum
%
Delta-T

°C
Wind Press
QNH
hPa
Press
MSL
hPa
Rain
since
9 am
mm
Dir
 
Spd
km/h
Gust
km/h
Spd
kts
Gust
kts
18/11:30pm 21.5 21.5 17.3 77 2.6 NNW 13 19 7 10 - - 0.0
18/11:00pm 21.6 21.2 17.2 76 2.7 N 15 17 8 9 - - 0.0
18/10:30pm 21.9 21.4 17.7 77 2.6 N 17 19 9 10 - - 0.0
18/10:00pm 21.9 21.3 17.5 76 2.7 N 17 19 9 10 - - 0.0

Latest Capital City Observations: Canberra | Sydney | Melbourne | Brisbane | Adelaide | Perth | Hobart | Darwin

Other Formats:

Comma delimited format used in spreadsheet applications
http://www.bom.gov.au/fwo/IDN60901/IDN60901.94774.axf

JavaScript Object Notation format (JSON) in row-major order
http://www.bom.gov.au/fwo/IDN60901/IDN60901.94774.json